Time;durP1;ratioP1;P1;durP2;ratioP2;P2;SDS_P1;SDS_P2;PMS_P1;PMS_P2;Temp;Humidity;BMP_temperature;BMP_pressure;BME280_temperature;BME280_humidity;BME280_pressure;Samples;Min_cycle;Max_cycle;Signal;HPM_P1;HPM_P2
2022/06/15 00:00:57;;;;;;;0.50;0.40;;;14.60;99.90;;;;;;5093958;28;20838;-79
2022/06/15 00:03:25;;;;;;;0.50;0.40;;;14.50;99.90;;;;;;5093247;28;20471;-79
2022/06/15 00:06:03;;;;;;;0.50;0.40;;;14.50;99.90;;;;;;5093866;28;20439;-79
2022/06/15 00:08:30;;;;;;;0.50;0.40;;;14.50;99.90;;;;;;5093354;28;20416;-78
2022/06/15 00:10:56;;;;;;;0.50;0.40;;;14.60;99.90;;;;;;5093214;28;20497;-79
2022/06/15 00:13:23;;;;;;;0.50;0.40;;;14.60;99.90;;;;;;5093537;28;21104;-79
2022/06/15 00:15:50;;;;;;;0.50;0.40;;;14.60;99.90;;;;;;5093900;28;20526;-79
2022/06/15 00:18:17;;;;;;;0.50;0.40;;;14.60;99.90;;;;;;5093865;28;20470;-79
2022/06/15 00:20:44;;;;;;;0.50;0.40;;;14.60;99.90;;;;;;5093601;28;20968;-79
2022/06/15 00:23:12;;;;;;;0.50;0.40;;;14.60;99.90;;;;;;5093819;28;20532;-80
2022/06/15 00:25:39;;;;;;;0.50;0.40;;;14.50;99.90;;;;;;5094034;28;20467;-79
2022/06/15 00:28:06;;;;;;;0.60;0.50;;;14.40;99.90;;;;;;5093169;28;20502;-80
2022/06/15 00:30:33;;;;;;;0.50;0.40;;;14.40;99.90;;;;;;5093855;28;21013;-82
2022/06/15 00:33:00;;;;;;;0.50;0.35;;;14.30;99.90;;;;;;5093557;28;20531;-79
2022/06/15 00:35:26;;;;;;;0.50;0.40;;;14.30;99.90;;;;;;5093946;28;20319;-79
2022/06/15 00:37:53;;;;;;;0.50;0.40;;;14.20;99.90;;;;;;5093220;28;20474;-79
2022/06/15 00:40:22;;;;;;;0.95;0.95;;;14.20;99.90;;;;;;5093804;28;20474;-79
2022/06/15 00:42:48;;;;;;;0.50;0.40;;;14.20;99.90;;;;;;5093090;28;20221;-80
2022/06/15 00:45:15;;;;;;;0.50;0.40;;;14.20;99.90;;;;;;5094117;28;20447;-79
2022/06/15 00:47:45;;;;;;;0.50;0.40;;;14.20;99.90;;;;;;5093789;28;20999;-81
2022/06/15 00:50:16;;;;;;;0.50;0.37;;;14.20;99.90;;;;;;5095193;28;20292;-81
2022/06/15 00:52:51;;;;;;;0.50;0.40;;;14.20;99.90;;;;;;5094534;28;20452;-81
2022/06/15 00:55:24;;;;;;;0.50;0.40;;;14.20;99.90;;;;;;5095403;28;20865;-81
2022/06/15 00:57:52;;;;;;;0.50;0.40;;;14.10;99.90;;;;;;5095357;28;20411;-81
2022/06/15 01:00:21;;;;;;;0.50;0.40;;;14.10;99.90;;;;;;5099452;28;20526;-81
2022/06/15 01:02:48;;;;;;;0.50;0.40;;;14.00;99.90;;;;;;5099254;28;20470;-80
2022/06/15 01:05:18;;;;;;;0.50;0.40;;;14.00;99.90;;;;;;5098660;28;20490;-81
2022/06/15 01:08:12;;;;;;;0.50;0.40;;;13.80;99.90;;;;;;5098520;28;20431;-81
2022/06/15 01:10:55;;;;;;;0.50;0.40;;;13.80;99.90;;;;;;5098754;28;21042;-81
2022/06/15 01:13:39;;;;;;;0.50;0.40;;;13.70;99.90;;;;;;5098335;28;20430;-81
2022/06/15 01:16:17;;;;;;;0.50;0.40;;;13.60;99.90;;;;;;5098806;28;20437;-81
2022/06/15 01:18:50;;;;;;;0.50;0.40;;;13.60;99.90;;;;;;5098274;28;20485;-81
2022/06/15 01:21:23;;;;;;;0.50;0.40;;;13.60;99.90;;;;;;5098294;28;20502;-80
2022/06/15 01:24:23;;;;;;;0.50;0.40;;;13.50;99.90;;;;;;5098507;28;20534;-80
2022/06/15 01:27:26;;;;;;;0.50;0.40;;;13.50;99.90;;;;;;5098246;28;20434;-81
2022/06/15 01:30:20;;;;;;;0.50;0.40;;;13.40;99.90;;;;;;5096511;28;20477;-81
2022/06/15 01:32:59;;;;;;;0.50;0.40;;;13.40;99.90;;;;;;5096799;28;20439;-81
2022/06/15 01:35:34;;;;;;;0.50;0.40;;;13.30;99.90;;;;;;5097646;28;20248;-80
2022/06/15 01:38:19;;;;;;;0.50;0.40;;;13.30;99.90;;;;;;5097910;28;20483;-82
2022/06/15 01:40:50;;;;;;;0.50;0.40;;;13.20;99.90;;;;;;5099128;28;20419;-81
2022/06/15 01:43:20;;;;;;;1.48;1.38;;;13.20;99.90;;;;;;5098736;28;20279;-81
2022/06/15 01:45:50;;;;;;;0.50;0.40;;;13.20;99.90;;;;;;5098164;28;20609;-81
2022/06/15 01:48:18;;;;;;;0.50;0.40;;;13.10;99.90;;;;;;5097681;28;20204;-81
2022/06/15 01:51:02;;;;;;;0.50;0.40;;;13.10;99.90;;;;;;5097725;28;20550;-81
2022/06/15 01:53:35;;;;;;;0.50;0.40;;;13.10;99.90;;;;;;5099140;28;20173;-80
2022/06/15 01:56:07;;;;;;;0.50;0.40;;;13.10;99.90;;;;;;5098226;28;20231;-81
2022/06/15 01:58:36;;;;;;;0.50;0.40;;;13.00;99.90;;;;;;5097081;28;20181;-80
2022/06/15 02:01:13;;;;;;;0.50;0.40;;;13.10;99.90;;;;;;5098194;28;20209;-80
2022/06/15 02:03:47;;;;;;;0.50;0.40;;;13.00;99.90;;;;;;5098777;28;20241;-79
2022/06/15 02:06:22;;;;;;;0.50;0.40;;;13.10;99.90;;;;;;5099609;28;20197;-80
2022/06/15 02:08:59;;;;;;;0.50;0.40;;;13.00;99.90;;;;;;5097028;28;20530;-80
2022/06/15 02:11:32;;;;;;;0.50;0.40;;;13.00;99.90;;;;;;5098069;28;20256;-81
2022/06/15 02:14:06;;;;;;;0.50;0.40;;;12.90;99.90;;;;;;5098377;28;20483;-80
2022/06/15 02:16:36;;;;;;;0.50;0.40;;;12.90;99.90;;;;;;5097995;28;20193;-80
2022/06/15 02:19:08;;;;;;;0.50;0.40;;;12.90;99.90;;;;;;5097885;28;20495;-80
2022/06/15 02:21:38;;;;;;;0.50;0.40;;;12.90;99.90;;;;;;5098382;28;20192;-80
2022/06/15 02:24:06;;;;;;;0.50;0.40;;;12.90;99.90;;;;;;5097949;28;20271;-81
2022/06/15 02:26:36;;;;;;;0.50;0.40;;;12.80;99.90;;;;;;5097315;28;20459;-80
2022/06/15 02:29:07;;;;;;;0.50;0.40;;;12.80;99.90;;;;;;5097200;28;20518;-80
2022/06/15 02:31:37;;;;;;;0.50;0.40;;;12.80;99.90;;;;;;5097864;28;20591;-79
2022/06/15 02:34:05;;;;;;;0.50;0.40;;;12.80;99.90;;;;;;5097549;28;20546;-80
2022/06/15 02:36:33;;;;;;;0.50;0.40;;;12.80;99.90;;;;;;5096676;28;20511;-80
2022/06/15 02:39:00;;;;;;;0.50;0.40;;;12.70;99.90;;;;;;5096686;28;20194;-81
2022/06/15 02:41:28;;;;;;;0.50;0.40;;;12.70;99.90;;;;;;5097092;28;20224;-81
2022/06/15 02:43:57;;;;;;;0.50;0.40;;;12.60;99.90;;;;;;5097673;28;20769;-80
2022/06/15 02:46:27;;;;;;;0.50;0.40;;;12.60;99.90;;;;;;5097444;28;20227;-78
2022/06/15 02:48:55;;;;;;;0.50;0.40;;;12.60;99.90;;;;;;5096697;28;20197;-80
2022/06/15 02:51:28;;;;;;;0.50;0.40;;;12.60;99.90;;;;;;5096706;28;20213;-80
2022/06/15 02:54:01;;;;;;;0.50;0.40;;;12.50;99.90;;;;;;5097343;28;20575;-81
2022/06/15 02:56:29;;;;;;;0.50;0.40;;;12.50;99.90;;;;;;5097190;28;20197;-80
2022/06/15 02:58:57;;;;;;;0.50;0.40;;;12.50;99.90;;;;;;5095471;28;20532;-80
2022/06/15 03:01:25;;;;;;;0.50;0.40;;;12.50;99.90;;;;;;5096555;28;20280;-80
2022/06/15 03:03:52;;;;;;;0.50;0.40;;;12.40;99.90;;;;;;5095935;28;20212;-80
2022/06/15 03:06:23;;;;;;;0.50;0.40;;;12.40;99.90;;;;;;5096715;28;20186;-80
2022/06/15 03:08:50;;;;;;;0.50;0.40;;;12.40;99.90;;;;;;5096191;28;20201;-80
2022/06/15 03:11:17;;;;;;;0.60;0.60;;;12.40;99.90;;;;;;5095280;28;20213;-79
2022/06/15 03:13:44;;;;;;;0.50;0.40;;;12.30;99.90;;;;;;5094324;28;20288;-79
2022/06/15 03:16:11;;;;;;;0.50;0.40;;;12.30;99.90;;;;;;5094915;28;20217;-79
2022/06/15 03:18:38;;;;;;;0.50;0.40;;;12.30;99.90;;;;;;5093684;28;20280;-79
2022/06/15 03:21:05;;;;;;;0.60;0.60;;;12.30;99.90;;;;;;5094007;28;20614;-79
2022/06/15 03:23:33;;;;;;;0.50;0.40;;;12.20;99.90;;;;;;5093967;28;20288;-79
2022/06/15 03:26:02;;;;;;;0.50;0.40;;;12.30;99.90;;;;;;5093638;28;20196;-80
2022/06/15 03:28:29;;;;;;;0.50;0.40;;;12.30;99.90;;;;;;5093578;28;20272;-80
2022/06/15 03:30:57;;;;;;;0.50;0.40;;;12.20;99.90;;;;;;5093815;28;20205;-79
2022/06/15 03:33:24;;;;;;;0.50;0.40;;;12.20;99.90;;;;;;5093531;28;20228;-80
2022/06/15 03:35:51;;;;;;;0.50;0.40;;;12.30;99.90;;;;;;5093453;28;20724;-80
2022/06/15 03:38:18;;;;;;;0.50;0.40;;;12.30;99.90;;;;;;5093454;28;20280;-79
2022/06/15 03:40:48;;;;;;;0.50;0.40;;;12.30;99.90;;;;;;5094260;28;20232;-79
2022/06/15 03:43:16;;;;;;;0.50;0.40;;;12.30;99.90;;;;;;5094666;28;20288;-79
2022/06/15 03:45:43;;;;;;;0.50;0.40;;;12.30;99.90;;;;;;5094059;28;20303;-79
2022/06/15 03:48:11;;;;;;;0.57;0.55;;;12.30;99.90;;;;;;5094230;28;20196;-80
2022/06/15 03:50:38;;;;;;;0.50;0.40;;;12.30;99.90;;;;;;5094508;28;20220;-80
2022/06/15 03:53:06;;;;;;;0.50;0.40;;;12.30;99.90;;;;;;5093893;28;20224;-79
2022/06/15 03:55:35;;;;;;;0.50;0.40;;;12.40;99.90;;;;;;5093493;28;20216;-78
2022/06/15 03:58:03;;;;;;;0.50;0.40;;;12.40;99.90;;;;;;5092680;28;20193;-78
2022/06/15 04:00:32;;;;;;;0.50;0.40;;;12.40;99.90;;;;;;5092475;28;20300;-79
2022/06/15 04:02:59;;;;;;;0.50;0.40;;;12.40;99.90;;;;;;5092654;28;20239;-77
2022/06/15 04:05:32;;;;;;;0.50;0.40;;;12.50;99.90;;;;;;5092666;28;20716;-78
2022/06/15 04:10:43;;;;;;;0.50;0.40;;;12.60;99.90;;;;;;5092348;28;20208;-78
2022/06/15 04:13:12;;;;;;;0.50;0.40;;;12.60;99.90;;;;;;5092361;28;20558;-77
2022/06/15 04:15:39;;;;;;;0.50;0.40;;;12.70;99.90;;;;;;5088061;28;20217;-78
2022/06/15 04:18:06;;;;;;;0.50;0.40;;;12.80;99.90;;;;;;5083269;28;20204;-78
2022/06/15 04:20:32;;;;;;;0.50;0.40;;;12.80;99.90;;;;;;5072867;28;20276;-78
2022/06/15 04:23:00;;;;;;;0.50;0.40;;;12.80;99.90;;;;;;5072901;28;20213;-77
2022/06/15 04:25:27;;;;;;;0.50;0.40;;;12.80;99.90;;;;;;5072905;28;20217;-77
2022/06/15 04:27:54;;;;;;;0.88;0.88;;;12.90;99.90;;;;;;5071901;28;20204;-77
2022/06/15 04:30:22;;;;;;;0.50;0.40;;;12.90;99.90;;;;;;5073042;28;20303;-78
2022/06/15 04:32:49;;;;;;;0.50;0.40;;;12.90;99.90;;;;;;5075608;28;20229;-77
2022/06/15 04:35:16;;;;;;;0.50;0.40;;;12.90;99.90;;;;;;5076331;28;20786;-77
2022/06/15 04:37:43;;;;;;;0.98;0.98;;;13.00;99.90;;;;;;5084866;28;20257;-77
2022/06/15 04:40:12;;;;;;;0.50;0.40;;;13.00;99.90;;;;;;5078751;28;20229;-77
2022/06/15 04:42:40;;;;;;;0.50;0.40;;;13.10;99.90;;;;;;5076010;28;20196;-77
2022/06/15 04:45:08;;;;;;;0.50;0.40;;;13.10;99.90;;;;;;5075468;28;20213;-78
2022/06/15 04:47:36;;;;;;;0.50;0.43;;;13.20;99.90;;;;;;5084761;28;20280;-78
2022/06/15 04:50:04;;;;;;;0.60;0.60;;;13.20;99.90;;;;;;5094223;28;20326;-78
2022/06/15 04:52:31;;;;;;;0.50;0.40;;;13.20;99.90;;;;;;5094181;28;20561;-78
2022/06/15 04:54:58;;;;;;;0.50;0.40;;;13.20;99.90;;;;;;5096060;28;20300;-78
2022/06/15 04:57:24;;;;;;;0.50;0.40;;;13.30;99.90;;;;;;5094793;28;20238;-77
2022/06/15 04:59:51;;;;;;;1.30;1.30;;;13.40;99.90;;;;;;5096058;28;20284;-78
2022/06/15 05:02:18;;;;;;;0.50;0.38;;;13.40;99.90;;;;;;5095679;28;20288;-79
2022/06/15 05:04:46;;;;;;;0.50;0.40;;;13.50;99.90;;;;;;5095466;28;20300;-78
2022/06/15 05:07:13;;;;;;;0.50;0.40;;;13.60;99.90;;;;;;5095331;28;20194;-77
2022/06/15 05:09:40;;;;;;;0.73;0.70;;;13.70;99.90;;;;;;5095389;28;20683;-79
2022/06/15 05:12:08;;;;;;;2.78;2.67;;;13.80;99.90;;;;;;5095137;28;20244;-77
2022/06/15 05:14:35;;;;;;;1.15;0.95;;;13.90;99.90;;;;;;5095859;28;20245;-79
2022/06/15 05:17:01;;;;;;;0.50;0.45;;;13.90;99.90;;;;;;5095375;28;20242;-79
2022/06/15 05:19:30;;;;;;;0.50;0.40;;;14.00;99.90;;;;;;5095922;28;20283;-77
2022/06/15 05:21:58;;;;;;;2.30;0.80;;;14.00;99.90;;;;;;5095963;28;20940;-78
2022/06/15 05:24:25;;;;;;;0.50;0.40;;;14.10;99.90;;;;;;5095319;28;20219;-77
2022/06/15 05:26:52;;;;;;;3.03;1.10;;;14.20;99.90;;;;;;5095042;28;20189;-78
2022/06/15 05:29:19;;;;;;;0.60;0.50;;;14.20;99.90;;;;;;5095467;28;20514;-79
2022/06/15 05:31:45;;;;;;;1.83;1.27;;;14.30;99.90;;;;;;5095471;28;21033;-77
2022/06/15 05:36:44;;;;;;;0.93;0.90;;;14.40;99.90;;;;;;5106062;22;21098;-81
2022/06/15 05:39:13;;;;;;;0.50;0.40;;;14.50;99.90;;;;;;5060445;28;20476;-83
2022/06/15 05:41:40;;;;;;;0.50;0.40;;;14.60;99.90;;;;;;5063210;28;20910;-81
2022/06/15 05:44:07;;;;;;;0.53;0.53;;;14.70;99.90;;;;;;5054611;28;20267;-83
2022/06/15 05:46:35;;;;;;;0.50;0.40;;;14.80;99.90;;;;;;5043186;28;20458;-82
2022/06/15 05:49:05;;;;;;;0.50;0.40;;;14.90;99.90;;;;;;5042405;28;20981;-83
2022/06/15 05:51:31;;;;;;;2.80;1.37;;;15.10;99.90;;;;;;5043477;28;20851;-81
2022/06/15 05:53:59;;;;;;;0.50;0.40;;;15.20;99.90;;;;;;5042837;28;20788;-81
2022/06/15 05:56:27;;;;;;;0.50;0.40;;;15.40;99.90;;;;;;5044202;28;20461;-84
2022/06/15 05:58:54;;;;;;;0.50;0.40;;;15.50;99.90;;;;;;5042919;28;20916;-85
2022/06/15 06:01:24;;;;;;;0.50;0.40;;;15.70;99.90;;;;;;5043774;28;20465;-84
2022/06/15 06:03:51;;;;;;;0.50;0.40;;;15.80;99.90;;;;;;5043445;28;20813;-84
2022/06/15 06:06:18;;;;;;;0.50;0.40;;;16.00;99.90;;;;;;5044615;28;20494;-84
2022/06/15 06:08:45;;;;;;;0.50;0.40;;;16.10;99.90;;;;;;5043169;28;20502;-84
2022/06/15 06:11:12;;;;;;;0.50;0.40;;;16.30;99.90;;;;;;5044266;28;20537;-84
2022/06/15 06:13:41;;;;;;;0.50;0.30;;;16.50;99.90;;;;;;5044351;28;20448;-84
2022/06/15 06:16:08;;;;;;;0.50;0.40;;;16.70;99.90;;;;;;5043640;28;20465;-83
2022/06/15 06:18:35;;;;;;;0.63;0.50;;;16.90;99.90;;;;;;5043827;28;20476;-84
2022/06/15 06:21:03;;;;;;;0.50;0.30;;;17.00;99.90;;;;;;5044240;28;20512;-84
2022/06/15 06:23:30;;;;;;;0.50;0.30;;;17.20;99.90;;;;;;5043494;28;20468;-84
2022/06/15 06:25:57;;;;;;;0.80;0.80;;;17.50;99.90;;;;;;5043300;28;20481;-84
2022/06/15 06:28:27;;;;;;;0.50;0.40;;;17.60;99.90;;;;;;5042334;28;20474;-84
2022/06/15 06:30:57;;;;;;;0.50;0.40;;;17.60;99.90;;;;;;5042837;28;20903;-84
2022/06/15 06:33:25;;;;;;;0.50;0.40;;;17.60;99.90;;;;;;5043100;28;20430;-83
2022/06/15 06:35:52;;;;;;;0.50;0.40;;;17.90;99.90;;;;;;5041945;28;20470;-83
2022/06/15 06:38:19;;;;;;;0.50;0.33;;;18.80;99.90;;;;;;5055458;28;20523;-84
2022/06/15 06:40:46;;;;;;;0.50;0.30;;;20.50;99.90;;;;;;5082822;28;20432;-84
2022/06/15 06:43:12;;;;;;;0.50;0.40;;;22.60;99.90;;;;;;5082605;28;20451;-84
2022/06/15 06:45:39;;;;;;;0.90;0.90;;;24.80;97.90;;;;;;5083181;28;20457;-85
2022/06/15 06:48:08;;;;;;;0.50;0.30;;;25.60;87.70;;;;;;5082144;28;20464;-82
2022/06/15 06:50:36;;;;;;;0.50;0.30;;;26.60;85.10;;;;;;5082871;28;20527;-82
2022/06/15 06:53:03;;;;;;;0.50;0.30;;;27.90;79.60;;;;;;5082466;28;20535;-82
2022/06/15 06:55:30;;;;;;;0.50;0.30;;;29.30;71.60;;;;;;5082036;28;20472;-82
2022/06/15 06:57:58;;;;;;;0.50;0.30;;;30.50;67.40;;;;;;5081203;28;20466;-82
2022/06/15 07:00:26;;;;;;;0.50;0.30;;;31.70;61.20;;;;;;5082833;28;20472;-83
2022/06/15 07:02:53;;;;;;;0.50;0.30;;;32.10;57.10;;;;;;5082362;28;20513;-82
2022/06/15 07:05:21;;;;;;;0.50;0.30;;;32.30;57.60;;;;;;5081629;28;20463;-83
2022/06/15 07:07:48;;;;;;;0.50;0.30;;;33.20;56.60;;;;;;5081533;28;20464;-83
2022/06/15 07:10:15;;;;;;;0.50;0.30;;;33.70;53.00;;;;;;5081922;28;20456;-83
2022/06/15 07:12:43;;;;;;;0.50;0.30;;;33.40;52.50;;;;;;5082471;28;20476;-83
2022/06/15 07:15:11;;;;;;;0.50;0.30;;;32.90;52.20;;;;;;5082231;28;20547;-82
2022/06/15 07:17:39;;;;;;;0.50;0.40;;;32.70;52.60;;;;;;5081129;28;20834;-82
2022/06/15 07:20:08;;;;;;;0.50;0.30;;;32.30;52.40;;;;;;5081407;28;20538;-82
2022/06/15 07:22:37;;;;;;;0.50;0.40;;;32.00;53.20;;;;;;5081317;28;20504;-82
2022/06/15 07:25:05;;;;;;;0.50;0.30;;;31.60;53.40;;;;;;5082522;28;20491;-82
2022/06/15 07:27:33;;;;;;;0.70;0.60;;;31.90;53.50;;;;;;5080835;28;20468;-82
2022/06/15 07:30:00;;;;;;;0.50;0.30;;;32.10;52.80;;;;;;5082279;28;20437;-82
2022/06/15 07:32:27;;;;;;;0.50;0.30;;;32.40;52.90;;;;;;5080659;28;21068;-82
2022/06/15 07:34:54;;;;;;;0.50;0.30;;;32.10;52.40;;;;;;5082114;28;20887;-82
2022/06/15 07:37:21;;;;;;;0.50;0.30;;;32.10;53.00;;;;;;5082065;28;20516;-82
2022/06/15 07:39:49;;;;;;;0.50;0.30;;;32.80;53.10;;;;;;5081785;28;20436;-82
2022/06/15 07:42:16;;;;;;;0.50;0.30;;;33.00;52.90;;;;;;5082370;28;20459;-83
2022/06/15 07:44:43;;;;;;;0.50;0.30;;;34.00;51.80;;;;;;5082653;28;20448;-82
2022/06/15 07:49:55;;;;;;;0.50;0.30;;;36.30;50.30;;;;;;5081843;28;20423;-83
2022/06/15 07:52:24;;;;;;;0.50;0.30;;;36.50;48.00;;;;;;5082362;28;20526;-83
2022/06/15 07:54:53;;;;;;;0.40;0.30;;;37.00;48.60;;;;;;5081496;28;20539;-83
2022/06/15 07:57:20;;;;;;;0.50;0.40;;;37.50;46.50;;;;;;5081555;28;20957;-83
2022/06/15 07:59:47;;;;;;;0.60;0.40;;;38.20;46.80;;;;;;5081931;28;20495;-83
2022/06/15 08:02:15;;;;;;;0.40;0.30;;;38.00;44.50;;;;;;5079171;28;20711;-83
2022/06/15 08:04:41;;;;;;;0.40;0.30;;;37.90;46.00;;;;;;5081408;28;20495;-82
2022/06/15 08:07:11;;;;;;;0.83;0.83;;;38.30;44.60;;;;;;5082237;28;20452;-83
2022/06/15 08:09:38;;;;;;;0.40;0.30;;;38.60;44.00;;;;;;5081705;28;20440;-83
2022/06/15 08:12:16;;;;;;;0.40;0.30;;;38.50;44.10;;;;;;5082263;28;20956;-83
2022/06/15 08:14:46;;;;;;;0.50;0.50;;;38.60;44.10;;;;;;5081886;28;20477;-83
2022/06/15 08:17:19;;;;;;;0.40;0.30;;;38.80;42.90;;;;;;5082811;28;20439;-82
2022/06/15 08:19:50;;;;;;;0.40;0.30;;;38.90;43.20;;;;;;5081339;28;20439;-82
2022/06/15 08:22:17;;;;;;;0.40;0.30;;;39.40;43.00;;;;;;5081429;28;20444;-82
2022/06/15 08:24:45;;;;;;;0.40;0.30;;;39.50;42.30;;;;;;5080754;28;20532;-82
2022/06/15 08:27:17;;;;;;;0.40;0.30;;;39.50;41.50;;;;;;5076120;28;20475;-79
2022/06/15 08:29:45;;;;;;;0.40;0.30;;;39.50;42.70;;;;;;5080191;28;20523;-81
2022/06/15 08:32:12;;;;;;;0.40;0.30;;;39.80;42.20;;;;;;5081287;28;20483;-83
2022/06/15 08:34:40;;;;;;;0.40;0.30;;;40.30;41.50;;;;;;5080784;28;20467;-83
2022/06/15 08:37:09;;;;;;;0.40;0.30;;;39.60;41.20;;;;;;5080483;28;20855;-80
2022/06/15 08:39:37;;;;;;;0.50;0.40;;;38.40;41.90;;;;;;5078030;28;20444;-83
2022/06/15 08:42:12;;;;;;;0.40;0.30;;;38.30;43.00;;;;;;5079182;28;20436;-82
2022/06/15 08:44:50;;;;;;;0.40;0.30;;;38.40;44.00;;;;;;5077547;28;20472;-83
2022/06/15 08:47:34;;;;;;;0.40;0.30;;;38.70;41.60;;;;;;5079258;28;20443;-82
2022/06/15 08:50:11;;;;;;;0.40;0.30;;;38.70;43.10;;;;;;5079598;28;20552;-82
2022/06/15 08:52:42;;;;;;;0.57;0.50;;;38.60;41.80;;;;;;5081925;28;20483;-83
2022/06/15 08:55:18;;;;;;;1.50;1.23;;;38.60;42.10;;;;;;5081243;28;20459;-83
2022/06/15 08:57:50;;;;;;;0.40;0.30;;;38.60;42.40;;;;;;5080603;28;20451;-83
2022/06/15 09:00:22;;;;;;;0.40;0.30;;;39.00;42.90;;;;;;5081236;28;20515;-83
2022/06/15 09:03:01;;;;;;;0.40;0.30;;;39.40;41.40;;;;;;5079988;28;20523;-82
2022/06/15 09:05:36;;;;;;;0.50;0.40;;;38.30;42.40;;;;;;5080893;28;20502;-83
2022/06/15 09:08:27;;;;;;;0.40;0.30;;;38.40;42.20;;;;;;5080861;28;20420;-83
2022/06/15 09:11:00;;;;;;;0.40;0.30;;;39.00;43.20;;;;;;5081603;28;20467;-83
2022/06/15 09:13:52;;;;;;;0.40;0.30;;;39.50;42.10;;;;;;5081443;28;20955;-82
2022/06/15 09:16:30;;;;;;;0.40;0.30;;;40.50;40.80;;;;;;5081184;28;20488;-83
2022/06/15 09:19:02;;;;;;;0.40;0.30;;;41.00;41.00;;;;;;5082675;28;20508;-83
2022/06/15 09:21:33;;;;;;;0.40;0.30;;;41.60;40.60;;;;;;5084645;28;20444;-83
2022/06/15 09:24:04;;;;;;;0.40;0.30;;;42.40;40.00;;;;;;5084364;28;20474;-83
2022/06/15 09:26:35;;;;;;;1.30;1.30;;;42.30;38.50;;;;;;5085273;28;20466;-83
2022/06/15 09:29:08;;;;;;;0.40;0.30;;;41.70;38.90;;;;;;5084796;28;20973;-83
2022/06/15 09:31:41;;;;;;;0.40;0.30;;;42.00;40.30;;;;;;5084047;28;20464;-83
2022/06/15 09:34:11;;;;;;;0.40;0.30;;;42.20;38.80;;;;;;5084239;28;20455;-83
2022/06/15 09:36:46;;;;;;;0.40;0.30;;;42.10;38.60;;;;;;5084063;28;20502;-83
2022/06/15 09:39:13;;;;;;;0.40;0.30;;;42.50;38.90;;;;;;5084522;28;20885;-83
2022/06/15 09:41:49;;;;;;;0.40;0.30;;;42.30;38.70;;;;;;5084477;28;20436;-83
2022/06/15 09:44:23;;;;;;;0.40;0.30;;;42.20;39.60;;;;;;5084908;28;20440;-83
2022/06/15 09:46:58;;;;;;;0.40;0.30;;;42.50;38.40;;;;;;5085050;28;20455;-83
2022/06/15 09:49:36;;;;;;;0.40;0.30;;;42.50;37.40;;;;;;5084559;28;20514;-83
2022/06/15 09:52:09;;;;;;;0.40;0.30;;;42.30;38.40;;;;;;5083987;28;20542;-85
2022/06/15 09:54:49;;;;;;;0.60;0.60;;;42.20;36.30;;;;;;5083514;28;20857;-83
2022/06/15 09:57:16;;;;;;;0.40;0.30;;;41.00;36.90;;;;;;5083291;28;20479;-83
2022/06/15 09:59:43;;;;;;;0.40;0.30;;;40.90;39.40;;;;;;5084416;28;20480;-82
2022/06/15 10:02:19;;;;;;;0.40;0.30;;;40.10;38.90;;;;;;5084522;28;20942;-83
2022/06/15 10:04:48;;;;;;;0.43;0.33;;;39.90;39.40;;;;;;5082608;28;20488;-83
2022/06/15 10:07:25;;;;;;;0.40;0.30;;;40.50;40.10;;;;;;5084275;28;20862;-82
2022/06/15 10:09:55;;;;;;;0.40;0.30;;;41.20;40.10;;;;;;5084089;28;20428;-83
2022/06/15 10:15:36;;;;;;;3.70;0.50;;;42.00;38.70;;;;;;5076529;28;20983;-83
2022/06/15 10:18:21;;;;;;;1.37;0.80;;;41.90;37.20;;;;;;5082332;28;20837;-83
2022/06/15 10:20:59;;;;;;;0.40;0.30;;;41.00;37.30;;;;;;5082530;28;20436;-83
2022/06/15 10:23:35;;;;;;;0.40;0.30;;;40.40;37.90;;;;;;5083244;28;20417;-82
2022/06/15 10:26:02;;;;;;;0.40;0.30;;;40.40;39.40;;;;;;5082883;28;20459;-80
2022/06/15 10:28:34;;;;;;;0.83;0.60;;;40.80;39.50;;;;;;5082902;28;20515;-83
2022/06/15 10:31:04;;;;;;;0.40;0.30;;;41.20;38.70;;;;;;5082569;28;20425;-83
2022/06/15 10:33:38;;;;;;;0.40;0.30;;;40.90;37.30;;;;;;5083021;28;20490;-83
2022/06/15 10:36:16;;;;;;;0.40;0.30;;;40.90;38.40;;;;;;5082463;28;20487;-83
2022/06/15 10:38:45;;;;;;;0.40;0.30;;;41.60;37.70;;;;;;5082714;28;20416;-83
2022/06/15 10:43:56;;;;;;;0.40;0.30;;;40.50;38.80;;;;;;5082750;28;20487;-83
2022/06/15 10:46:23;;;;;;;0.40;0.30;;;40.70;39.00;;;;;;5081915;28;20468;-83
2022/06/15 10:48:55;;;;;;;0.40;0.30;;;41.40;39.00;;;;;;5081707;28;20468;-83
2022/06/15 10:51:31;;;;;;;0.40;0.30;;;40.60;37.20;;;;;;5081203;28;20425;-83
2022/06/15 10:54:19;;;;;;;0.40;0.30;;;39.30;37.60;;;;;;5081665;28;20432;-83
2022/06/15 11:02:26;;;;;;;0.40;0.30;;;40.30;38.50;;;;;;5080927;28;20400;-82
2022/06/15 11:04:58;;;;;;;0.80;0.40;;;39.70;39.50;;;;;;5080546;28;20922;-83
2022/06/15 11:07:31;;;;;;;0.40;0.30;;;40.30;40.70;;;;;;5081066;28;20472;-82
2022/06/15 11:10:11;;;;;;;0.40;0.30;;;40.30;37.70;;;;;;5080728;28;20471;-82
2022/06/15 11:12:44;;;;;;;0.40;0.30;;;40.70;38.30;;;;;;5081174;28;20491;-83
2022/06/15 11:18:01;;;;;;;0.40;0.30;;;41.40;38.60;;;;;;5081316;28;20484;-83
2022/06/15 11:18:27;;;;;;;0.40;0.30;;;42.00;37.70;;;;;;5081164;28;20435;-82
2022/06/15 11:21:01;;;;;;;0.40;0.30;;;42.50;36.60;;;;;;5081764;28;20443;-82
2022/06/15 11:23:33;;;;;;;0.40;0.30;;;42.60;36.20;;;;;;5080763;28;20432;-82
2022/06/15 11:26:51;;;;;;;0.40;0.30;;;42.60;37.00;;;;;;5081975;28;20492;-82
2022/06/15 11:28:54;;;;;;;0.40;0.30;;;42.20;36.40;;;;;;5081576;28;20925;-83
2022/06/15 11:31:25;;;;;;;0.93;0.93;;;40.80;37.50;;;;;;5081811;28;20437;-82
2022/06/15 11:34:02;;;;;;;0.40;0.40;;;40.10;37.40;;;;;;5080720;28;20498;-82
2022/06/15 11:36:34;;;;;;;0.40;0.30;;;39.90;38.90;;;;;;5114552;22;20528;-78
2022/06/15 11:39:13;;;;;;;0.50;0.43;;;40.00;38.40;;;;;;5048023;28;20472;-77
2022/06/15 11:41:44;;;;;;;0.40;0.30;;;40.20;39.10;;;;;;5050785;28;20437;-76
2022/06/15 11:44:16;;;;;;;0.40;0.30;;;40.60;39.00;;;;;;5051500;28;20520;-77
2022/06/15 11:47:02;;;;;;;0.40;0.30;;;40.90;38.70;;;;;;5031795;28;20472;-78
2022/06/15 11:49:38;;;;;;;0.40;0.30;;;40.60;38.30;;;;;;5030952;28;20948;-78
2022/06/15 11:52:39;;;;;;;0.40;0.30;;;40.90;38.30;;;;;;5031185;28;20469;-78
2022/06/15 11:55:20;;;;;;;0.40;0.30;;;40.80;37.40;;;;;;5031524;28;20545;-77
2022/06/15 11:58:02;;;;;;;0.40;0.30;;;39.90;37.60;;;;;;5030983;28;20823;-78
2022/06/15 12:00:37;;;;;;;0.50;0.40;;;40.00;37.80;;;;;;5031522;28;20903;-76
2022/06/15 12:03:38;;;;;;;0.40;0.30;;;39.00;38.50;;;;;;5031352;28;20438;-77
2022/06/15 12:06:10;;;;;;;0.40;0.30;;;38.50;39.40;;;;;;5031341;28;20462;-77
2022/06/15 12:08:47;;;;;;;0.40;0.30;;;39.00;40.10;;;;;;5030879;28;20540;-77
2022/06/15 12:14:15;;;;;;;0.40;0.30;;;38.80;38.70;;;;;;5030909;28;20760;-77
2022/06/15 12:16:49;;;;;;;0.40;0.30;;;38.50;41.00;;;;;;5031049;28;20493;-78
2022/06/15 12:19:25;;;;;;;0.40;0.30;;;39.20;39.30;;;;;;5030689;28;20436;-74
2022/06/15 12:21:56;;;;;;;0.40;0.30;;;39.10;39.40;;;;;;5031274;28;20444;-77
2022/06/15 12:24:28;;;;;;;0.40;0.30;;;39.20;38.90;;;;;;5030904;28;20426;-74
2022/06/15 12:27:04;;;;;;;0.40;0.30;;;39.30;39.70;;;;;;5031209;28;20462;-77
2022/06/15 12:29:50;;;;;;;0.40;0.30;;;39.80;39.10;;;;;;5030698;28;20441;-77
2022/06/15 12:32:37;;;;;;;0.40;0.30;;;39.80;38.10;;;;;;5030531;28;20450;-78
2022/06/15 12:35:24;;;;;;;0.40;0.30;;;39.30;39.10;;;;;;5031144;28;20843;-77
2022/06/15 12:37:57;;;;;;;0.40;0.30;;;38.10;39.10;;;;;;5031101;28;20457;-78
2022/06/15 12:40:31;;;;;;;0.40;0.30;;;38.10;40.00;;;;;;5031213;28;20445;-77
2022/06/15 12:43:10;;;;;;;0.70;0.70;;;38.60;40.50;;;;;;5031063;28;20532;-77
2022/06/15 12:45:41;;;;;;;0.40;0.30;;;39.30;40.30;;;;;;5030564;28;21062;-78
2022/06/15 12:48:22;;;;;;;0.40;0.40;;;39.70;38.50;;;;;;5030780;28;20858;-78
2022/06/15 12:50:58;;;;;;;0.40;0.30;;;40.10;38.50;;;;;;5030983;28;20431;-76
2022/06/15 12:53:36;;;;;;;0.40;0.30;;;40.50;38.90;;;;;;5033317;28;20839;-76
2022/06/15 12:56:15;;;;;;;0.40;0.30;;;41.00;38.40;;;;;;5034698;28;20967;-77
2022/06/15 12:59:00;;;;;;;0.40;0.30;;;41.40;38.00;;;;;;5035275;28;20422;-79
2022/06/15 13:01:33;;;;;;;0.50;0.40;;;41.80;37.50;;;;;;5036259;28;20549;-79
2022/06/15 13:04:10;;;;;;;0.40;0.30;;;41.60;36.60;;;;;;5035309;28;20432;-79
2022/06/15 13:06:39;;;;;;;0.40;0.30;;;41.20;36.70;;;;;;5034137;28;20536;-79
2022/06/15 13:09:18;;;;;;;0.40;0.30;;;40.60;37.60;;;;;;5034729;28;20533;-78
2022/06/15 13:12:02;;;;;;;0.80;0.80;;;40.70;38.20;;;;;;5035683;28;20480;-78
2022/06/15 13:14:32;;;;;;;0.63;0.63;;;40.80;37.10;;;;;;5035038;28;20466;-78
2022/06/15 13:17:05;;;;;;;0.40;0.30;;;40.90;37.40;;;;;;5035532;28;20544;-78
2022/06/15 13:19:37;;;;;;;0.40;0.30;;;41.10;36.90;;;;;;5034889;28;20827;-78
2022/06/15 13:22:13;;;;;;;0.40;0.30;;;41.20;37.40;;;;;;5034718;28;20848;-78
2022/06/15 13:24:57;;;;;;;0.40;0.30;;;40.40;37.30;;;;;;5034811;28;20524;-78
2022/06/15 13:27:29;;;;;;;0.40;0.30;;;40.20;37.80;;;;;;5034384;28;20485;-79
2022/06/15 13:30:21;;;;;;;0.40;0.30;;;40.20;39.00;;;;;;5034523;28;20509;-78
2022/06/15 13:33:00;;;;;;;0.40;0.30;;;40.40;39.50;;;;;;5034923;28;20564;-78